createdAt,value
2018-11-04T00:02:02.284Z,3.30
2018-11-04T00:04:30.448Z,3.30
2018-11-04T00:06:58.598Z,3.40
2018-11-04T00:09:26.763Z,3.40
2018-11-04T00:11:54.922Z,3.30
2018-11-04T00:14:23.082Z,3.30
2018-11-04T00:16:51.271Z,3.30
2018-11-04T00:19:19.445Z,3.30
2018-11-04T00:21:47.606Z,3.20
2018-11-04T00:24:15.770Z,3.30
2018-11-04T00:26:43.930Z,3.20
2018-11-04T00:29:12.090Z,3.20
2018-11-04T00:31:40.335Z,3.20
2018-11-04T00:34:08.494Z,3.20
2018-11-04T00:36:36.658Z,3.20
2018-11-04T00:39:06.842Z,3.20
2018-11-04T00:41:35.034Z,3.20
2018-11-04T00:44:03.204Z,3.30
2018-11-04T00:46:31.383Z,3.30
2018-11-04T00:48:59.546Z,3.20
2018-11-04T00:51:27.698Z,3.20
2018-11-04T00:53:55.863Z,3.20
2018-11-04T00:56:24.055Z,3.20
2018-11-04T00:58:52.207Z,3.20
2018-11-04T01:01:20.408Z,3.20
2018-11-04T01:03:48.510Z,3.20
2018-11-04T01:06:16.678Z,3.20
2018-11-04T01:08:44.843Z,3.20
2018-11-04T01:11:12.995Z,3.20
2018-11-04T01:13:41.151Z,3.20
2018-11-04T01:16:09.309Z,3.30
2018-11-04T01:18:37.459Z,3.20
2018-11-04T01:21:05.764Z,3.20
2018-11-04T01:23:33.882Z,3.30
2018-11-04T01:26:02.043Z,3.30
2018-11-04T01:28:30.199Z,3.30
2018-11-04T01:30:58.365Z,3.30
2018-11-04T01:33:26.539Z,3.30
2018-11-04T01:35:54.710Z,3.30
2018-11-04T01:38:22.873Z,3.20
2018-11-04T01:40:51.076Z,3.20
2018-11-04T01:43:19.208Z,3.20
2018-11-04T01:45:47.365Z,3.20
2018-11-04T01:48:15.527Z,3.20
2018-11-04T01:50:43.683Z,3.20
2018-11-04T01:53:11.819Z,3.20
2018-11-04T01:55:39.966Z,3.20
2018-11-04T01:58:08.102Z,3.20
2018-11-04T02:00:36.254Z,3.20
2018-11-04T02:03:04.390Z,3.20
2018-11-04T02:05:32.538Z,3.20
2018-11-04T02:08:00.684Z,3.20
2018-11-04T02:10:28.830Z,3.20
2018-11-04T02:12:56.969Z,3.20
2018-11-04T02:15:25.106Z,3.10
2018-11-04T02:17:53.238Z,3.20
2018-11-04T02:20:21.397Z,3.20
2018-11-04T02:22:49.554Z,3.20
2018-11-04T02:25:17.754Z,3.20
2018-11-04T02:27:45.911Z,3.10
2018-11-04T02:30:16.140Z,3.10
2018-11-04T02:32:45.204Z,3.00
2018-11-04T02:35:14.004Z,3.00
2018-11-04T02:37:42.143Z,3.10
2018-11-04T02:40:10.843Z,3.10
2018-11-04T02:42:38.994Z,3.00
2018-11-04T02:45:07.434Z,3.00
2018-11-04T02:47:35.830Z,3.00
2018-11-04T02:50:04.251Z,2.90
2018-11-04T02:52:32.409Z,2.90
2018-11-04T02:55:00.564Z,2.90
2018-11-04T02:57:28.731Z,2.90
2018-11-04T02:59:56.919Z,2.90
2018-11-04T03:02:25.090Z,2.90
2018-11-04T03:04:53.247Z,2.90
2018-11-04T03:07:21.410Z,2.90
2018-11-04T03:09:49.558Z,2.80
2018-11-04T03:12:17.722Z,2.90
2018-11-04T03:14:45.888Z,2.90
2018-11-04T03:17:14.038Z,2.80
2018-11-04T03:19:42.182Z,2.90
2018-11-04T03:22:10.357Z,2.90
2018-11-04T03:24:38.576Z,2.80
2018-11-04T03:27:06.658Z,2.80
2018-11-04T03:29:34.810Z,2.80
2018-11-04T03:32:02.978Z,2.80
2018-11-04T03:34:31.134Z,2.80
2018-11-04T03:36:59.384Z,2.80
2018-11-04T03:39:27.543Z,2.80
2018-11-04T03:41:55.707Z,2.80
2018-11-04T03:44:23.853Z,2.80
2018-11-04T03:46:52.023Z,2.80
2018-11-04T03:49:20.186Z,2.70
2018-11-04T03:51:48.355Z,2.80
2018-11-04T03:54:16.498Z,2.70
2018-11-04T03:56:44.655Z,2.70
2018-11-04T03:59:12.807Z,2.80
2018-11-04T04:01:40.967Z,2.80
2018-11-04T04:04:09.114Z,2.70
2018-11-04T04:06:37.278Z,2.70
2018-11-04T04:09:07.450Z,2.70
2018-11-04T04:11:35.699Z,2.70
2018-11-04T04:14:03.823Z,2.70
2018-11-04T04:16:31.954Z,2.70
2018-11-04T04:19:00.075Z,2.70
2018-11-04T04:21:28.207Z,2.70
2018-11-04T04:23:56.326Z,2.80
2018-11-04T04:26:24.495Z,2.80
2018-11-04T04:28:52.614Z,2.80
2018-11-04T04:31:20.739Z,2.80
2018-11-04T04:33:48.879Z,2.80
2018-11-04T04:36:16.994Z,2.80
2018-11-04T04:38:45.127Z,2.80
2018-11-04T04:41:13.243Z,2.80
2018-11-04T04:43:41.475Z,2.90
2018-11-04T04:46:09.596Z,2.90
2018-11-04T04:48:37.754Z,2.90
2018-11-04T04:51:05.979Z,2.90
2018-11-04T04:53:34.131Z,2.90
2018-11-04T04:56:02.262Z,2.90
2018-11-04T04:58:30.409Z,3.00
2018-11-04T05:00:58.555Z,3.00
2018-11-04T05:03:26.706Z,3.10
2018-11-04T05:05:54.856Z,3.10
2018-11-04T05:08:23.005Z,3.10
2018-11-04T05:10:51.146Z,3.20
2018-11-04T05:13:19.323Z,3.20
2018-11-04T05:15:47.467Z,3.20
2018-11-04T05:18:15.614Z,3.30
2018-11-04T05:20:43.758Z,3.30
2018-11-04T05:23:11.937Z,3.40
2018-11-04T05:25:40.086Z,3.40
2018-11-04T05:28:08.893Z,3.40
2018-11-04T05:30:37.253Z,3.50
2018-11-04T05:33:05.758Z,3.50
2018-11-04T05:35:33.894Z,3.50
2018-11-04T05:38:02.043Z,3.50
2018-11-04T05:40:30.486Z,3.60
2018-11-04T05:42:58.641Z,3.60
2018-11-04T05:45:26.786Z,3.70
2018-11-04T05:47:54.934Z,3.70
2018-11-04T05:50:23.052Z,3.70
2018-11-04T05:52:51.174Z,3.70
2018-11-04T05:55:19.299Z,3.70
2018-11-04T05:57:47.426Z,3.70
2018-11-04T06:00:15.539Z,3.80
2018-11-04T06:02:43.661Z,3.90
2018-11-04T06:05:11.959Z,3.80
2018-11-04T06:07:40.349Z,3.90
2018-11-04T06:10:08.570Z,3.90
2018-11-04T06:12:37.218Z,3.90
2018-11-04T06:15:06.057Z,4.00
2018-11-04T06:17:34.190Z,4.00
2018-11-04T06:20:02.307Z,4.00
2018-11-04T06:22:30.470Z,4.00
2018-11-04T06:24:58.594Z,4.10
2018-11-04T06:27:26.712Z,4.10
2018-11-04T06:29:54.851Z,4.10
2018-11-04T06:32:22.962Z,4.10
2018-11-04T06:34:51.082Z,4.20
2018-11-04T06:37:19.212Z,4.20
2018-11-04T06:39:47.326Z,4.20
2018-11-04T06:42:15.458Z,4.20
2018-11-04T06:44:43.585Z,4.30
2018-11-04T06:47:11.804Z,4.30
2018-11-04T06:49:39.849Z,4.30
2018-11-04T06:52:08.003Z,4.30
2018-11-04T06:54:36.154Z,4.30
2018-11-04T06:57:04.285Z,4.30
2018-11-04T06:59:32.443Z,4.30
2018-11-04T07:02:00.666Z,4.40
2018-11-04T07:04:29.702Z,4.40
2018-11-04T07:06:58.341Z,4.50
2018-11-04T07:09:26.492Z,4.50
2018-11-04T07:11:54.635Z,4.60
2018-11-04T07:14:22.782Z,4.60
2018-11-04T07:16:50.923Z,4.60
2018-11-04T07:19:19.065Z,4.60
2018-11-04T07:21:47.210Z,4.70
2018-11-04T07:24:15.358Z,4.70
2018-11-04T07:26:43.499Z,4.70
2018-11-04T07:29:11.651Z,4.80
2018-11-04T07:31:39.794Z,4.80
2018-11-04T07:34:08.107Z,4.90
2018-11-04T07:36:36.255Z,4.90
2018-11-04T07:39:08.238Z,4.90
2018-11-04T07:41:36.378Z,5.00
2018-11-04T07:44:04.523Z,5.00
2018-11-04T07:46:32.679Z,5.10
2018-11-04T07:49:00.895Z,5.00
2018-11-04T07:51:29.038Z,5.10
2018-11-04T07:53:57.125Z,5.20
2018-11-04T07:56:25.255Z,5.20
2018-11-04T07:58:53.397Z,5.30
2018-11-04T08:01:21.523Z,5.40
2018-11-04T08:03:49.641Z,5.40
2018-11-04T08:06:17.765Z,5.40
2018-11-04T08:08:45.883Z,5.50
2018-11-04T08:11:14.031Z,5.50
2018-11-04T08:13:42.453Z,5.60
2018-11-04T08:16:10.467Z,5.60
2018-11-04T08:18:38.584Z,5.60
2018-11-04T08:21:06.801Z,5.70
2018-11-04T08:23:34.906Z,5.80
2018-11-04T08:26:03.033Z,5.80
2018-11-04T08:28:31.159Z,5.90
2018-11-04T08:30:59.290Z,5.90
2018-11-04T08:33:27.415Z,6.00
2018-11-04T08:35:55.542Z,6.00
2018-11-04T08:38:23.666Z,6.10
2018-11-04T08:40:51.810Z,6.20
2018-11-04T08:43:19.942Z,6.20
2018-11-04T08:45:48.104Z,6.20
2018-11-04T08:48:16.215Z,6.30
2018-11-04T08:50:44.374Z,6.40
2018-11-04T08:53:12.521Z,6.40
2018-11-04T08:55:40.669Z,6.40
2018-11-04T08:58:08.806Z,6.50
2018-11-04T09:00:36.946Z,6.50
2018-11-04T09:03:05.330Z,6.60
2018-11-04T09:05:33.483Z,6.60
2018-11-04T09:08:01.618Z,6.70
2018-11-04T09:10:29.768Z,6.80
2018-11-04T09:12:57.915Z,6.90
2018-11-04T09:15:26.058Z,6.90
2018-11-04T09:17:54.198Z,7.00
2018-11-04T09:20:22.350Z,7.10
2018-11-04T09:22:50.487Z,7.10
2018-11-04T09:25:18.636Z,7.20
2018-11-04T09:27:46.782Z,7.20
2018-11-04T09:30:16.287Z,7.30
2018-11-04T09:32:44.438Z,7.30
2018-11-04T09:35:13.581Z,7.40
2018-11-04T09:37:41.715Z,7.40
2018-11-04T09:40:12.090Z,7.50
2018-11-04T09:42:40.262Z,7.50
2018-11-04T09:45:09.191Z,7.60
2018-11-04T09:47:37.487Z,7.60
2018-11-04T09:50:07.521Z,7.70
2018-11-04T09:52:35.643Z,7.70
2018-11-04T09:55:03.780Z,7.80
2018-11-04T09:57:31.898Z,7.80
2018-11-04T10:00:00.050Z,7.80
2018-11-04T10:02:28.162Z,7.80
2018-11-04T10:04:56.285Z,7.90
2018-11-04T10:07:24.423Z,7.90
2018-11-04T10:09:52.543Z,8.00
2018-11-04T10:12:20.689Z,8.10
2018-11-04T10:14:48.802Z,8.10
2018-11-04T10:17:16.939Z,8.10
2018-11-04T10:19:45.225Z,8.10
2018-11-04T10:22:13.273Z,8.10
2018-11-04T10:24:41.385Z,8.10
2018-11-04T10:27:09.515Z,8.20
2018-11-04T10:29:37.638Z,8.30
2018-11-04T10:32:05.779Z,8.20
2018-11-04T10:34:33.895Z,8.30
2018-11-04T10:37:02.114Z,8.30
2018-11-04T10:39:30.158Z,8.30
2018-11-04T10:41:58.282Z,8.40
2018-11-04T10:44:26.407Z,8.40
2018-11-04T10:46:54.548Z,8.40
2018-11-04T10:49:22.694Z,8.50
2018-11-04T10:51:50.807Z,8.50
2018-11-04T10:54:19.003Z,8.50
2018-11-04T10:56:47.130Z,8.50
2018-11-04T10:59:15.263Z,8.60
2018-11-04T11:01:43.386Z,8.60
2018-11-04T11:04:11.543Z,8.50
2018-11-04T11:06:39.877Z,8.60
2018-11-04T11:09:09.283Z,8.60
2018-11-04T11:11:37.990Z,8.60
2018-11-04T11:14:06.106Z,8.70
2018-11-04T11:16:34.249Z,8.70
2018-11-04T11:19:02.410Z,8.70
2018-11-04T11:21:30.526Z,8.70
2018-11-04T11:23:58.658Z,8.70
2018-11-04T11:26:26.774Z,8.80
2018-11-04T11:28:54.911Z,8.80
2018-11-04T11:31:23.048Z,8.80
2018-11-04T11:33:51.202Z,8.80
2018-11-04T11:36:19.362Z,8.90
2018-11-04T11:38:47.482Z,8.90
2018-11-04T11:41:15.593Z,8.90
2018-11-04T11:43:43.727Z,8.90
2018-11-04T11:46:11.851Z,8.90
2018-11-04T11:51:14.446Z,9.00
2018-11-04T11:53:42.583Z,9.00
2018-11-04T11:56:10.703Z,9.00
2018-11-04T11:58:38.846Z,9.00
2018-11-04T12:01:06.987Z,9.00
2018-11-04T12:03:35.131Z,9.10
2018-11-04T12:06:03.246Z,9.10
2018-11-04T12:08:31.377Z,9.20
2018-11-04T12:10:59.495Z,9.20
2018-11-04T12:13:27.646Z,9.20
2018-11-04T12:15:55.735Z,9.20
2018-11-04T12:18:23.861Z,9.20
2018-11-04T12:20:51.986Z,9.30
2018-11-04T12:23:20.144Z,9.30
2018-11-04T12:25:48.259Z,9.30
2018-11-04T12:28:16.394Z,9.30
2018-11-04T12:30:44.509Z,9.40
2018-11-04T12:33:12.634Z,9.40
2018-11-04T12:35:40.764Z,9.50
2018-11-04T12:38:08.898Z,9.50
2018-11-04T12:40:37.027Z,9.50
2018-11-04T12:43:05.226Z,9.60
2018-11-04T12:45:33.417Z,9.60
2018-11-04T12:48:01.470Z,9.60
2018-11-04T12:50:29.597Z,9.70
2018-11-04T12:52:57.730Z,9.70
2018-11-04T12:55:25.846Z,9.70
2018-11-04T12:57:53.980Z,9.70
2018-11-04T13:00:22.104Z,9.70
2018-11-04T13:02:50.255Z,9.70
2018-11-04T13:05:18.383Z,9.70
2018-11-04T13:07:46.498Z,9.80
2018-11-04T13:10:15.020Z,9.80
2018-11-04T13:12:43.051Z,9.80
2018-11-04T13:15:12.710Z,9.90
2018-11-04T13:17:41.183Z,9.90
2018-11-04T13:20:09.333Z,10.00
2018-11-04T13:22:37.554Z,10.00
2018-11-04T13:25:06.395Z,10.00
2018-11-04T13:27:34.525Z,10.00
2018-11-04T13:30:02.661Z,10.10
2018-11-04T13:32:30.782Z,10.10
2018-11-04T13:34:58.915Z,10.10
2018-11-04T13:37:27.039Z,10.20
2018-11-04T13:39:55.166Z,10.20
2018-11-04T13:42:23.311Z,10.20
2018-11-04T13:44:51.592Z,10.20
2018-11-04T13:47:19.710Z,10.30
2018-11-04T13:49:47.875Z,10.30
2018-11-04T13:52:16.047Z,10.30
2018-11-04T13:54:44.190Z,10.30
2018-11-04T13:57:12.326Z,10.30
2018-11-04T13:59:40.478Z,10.40
2018-11-04T14:02:08.626Z,10.40
2018-11-04T14:04:36.778Z,10.40
2018-11-04T14:07:05.326Z,10.40
2018-11-04T14:09:33.542Z,10.40
2018-11-04T14:12:01.695Z,10.40
2018-11-04T14:14:29.930Z,10.40
2018-11-04T14:16:58.074Z,10.50
2018-11-04T14:19:26.236Z,10.50
2018-11-04T14:21:54.382Z,10.50
2018-11-04T14:24:22.617Z,10.50
2018-11-04T14:26:50.759Z,10.50
2018-11-04T14:29:18.906Z,10.50
2018-11-04T14:31:47.115Z,10.50
2018-11-04T14:34:15.258Z,10.50
2018-11-04T14:36:43.407Z,10.50
2018-11-04T14:39:11.867Z,10.50
2018-11-04T14:41:40.032Z,10.50
2018-11-04T14:44:08.171Z,10.50
2018-11-04T14:46:36.343Z,10.50
2018-11-04T14:49:04.877Z,10.50
2018-11-04T14:51:33.095Z,10.50
2018-11-04T14:54:01.235Z,10.60
2018-11-04T14:56:30.151Z,10.60
2018-11-04T14:58:58.656Z,10.60
2018-11-04T15:01:27.397Z,10.60
2018-11-04T15:03:55.433Z,10.60
2018-11-04T15:06:24.390Z,10.60
2018-11-04T15:08:52.566Z,10.60
2018-11-04T15:11:20.702Z,10.60
2018-11-04T15:13:48.821Z,10.60
2018-11-04T15:16:17.038Z,10.60
2018-11-04T15:18:45.337Z,10.60
2018-11-04T15:21:13.363Z,10.60
2018-11-04T15:23:41.504Z,10.60
2018-11-04T15:26:09.632Z,10.60
2018-11-04T15:28:38.506Z,10.60
2018-11-04T15:31:06.687Z,10.60
2018-11-04T15:33:34.818Z,10.60
2018-11-04T15:36:02.946Z,10.50
2018-11-04T15:38:31.129Z,10.60
2018-11-04T15:40:59.298Z,10.50
2018-11-04T15:43:27.431Z,10.50
2018-11-04T15:45:55.560Z,10.50
2018-11-04T15:48:23.702Z,10.50
2018-11-04T15:50:51.844Z,10.50
2018-11-04T15:53:20.391Z,10.50
2018-11-04T15:55:48.531Z,10.50
2018-11-04T15:58:16.676Z,10.50
2018-11-04T16:00:44.911Z,10.40
2018-11-04T16:03:13.063Z,10.40
2018-11-04T16:05:41.196Z,10.40
2018-11-04T16:08:09.326Z,10.40
2018-11-04T16:10:37.486Z,10.30
2018-11-04T16:13:05.635Z,10.30
2018-11-04T16:15:33.775Z,10.30
2018-11-04T16:18:01.912Z,10.20
2018-11-04T16:20:30.051Z,10.20
2018-11-04T16:22:58.175Z,10.20
2018-11-04T16:25:26.352Z,10.20
2018-11-04T16:27:54.433Z,10.20
2018-11-04T16:30:22.574Z,10.10
2018-11-04T16:32:50.707Z,10.10
2018-11-04T16:35:18.930Z,10.10
2018-11-04T16:37:47.072Z,10.10
2018-11-04T16:40:15.191Z,10.10
2018-11-04T16:42:43.330Z,10.10
2018-11-04T16:45:13.954Z,10.10
2018-11-04T16:47:42.088Z,10.10
2018-11-04T16:50:11.189Z,10.10
2018-11-04T16:52:39.306Z,10.00
2018-11-04T16:55:07.935Z,10.10
2018-11-04T16:57:36.061Z,10.00
2018-11-04T17:00:04.526Z,10.10
2018-11-04T17:02:32.687Z,10.00
2018-11-04T17:05:00.849Z,10.00
2018-11-04T17:07:29.128Z,10.00
2018-11-04T17:09:57.270Z,10.00
2018-11-04T17:12:25.433Z,10.00
2018-11-04T17:14:53.583Z,10.00
2018-11-04T17:17:21.774Z,10.00
2018-11-04T17:19:50.099Z,9.90
2018-11-04T17:22:18.250Z,10.00
2018-11-04T17:24:46.387Z,9.90
2018-11-04T17:27:14.538Z,9.90
2018-11-04T17:29:42.991Z,9.90
2018-11-04T17:32:11.170Z,9.90
2018-11-04T17:34:39.301Z,9.90
2018-11-04T17:37:08.046Z,9.90
2018-11-04T17:39:36.275Z,9.90
2018-11-04T17:42:04.746Z,9.90
2018-11-04T17:44:32.936Z,9.90
2018-11-04T17:47:01.027Z,9.90
2018-11-04T17:49:29.154Z,9.90
2018-11-04T17:51:57.298Z,9.90
2018-11-04T17:54:25.439Z,9.90
2018-11-04T17:56:53.858Z,9.90
2018-11-04T17:59:21.991Z,9.90
2018-11-04T18:01:50.112Z,9.80
2018-11-04T18:04:18.243Z,9.90
2018-11-04T18:06:46.375Z,9.80
2018-11-04T18:09:14.531Z,9.90
2018-11-04T18:11:42.647Z,9.80
2018-11-04T18:14:10.902Z,9.90
2018-11-04T18:16:39.130Z,9.80
2018-11-04T18:19:07.280Z,9.90
2018-11-04T18:21:35.943Z,9.80
2018-11-04T18:24:04.094Z,9.90
2018-11-04T18:26:32.309Z,9.80
2018-11-04T18:29:00.393Z,9.80
2018-11-04T18:31:28.532Z,9.90
2018-11-04T18:33:56.842Z,9.80
2018-11-04T18:36:24.990Z,9.80
2018-11-04T18:38:53.122Z,9.80
2018-11-04T18:41:21.243Z,9.80
2018-11-04T18:43:49.602Z,9.80
2018-11-04T18:46:17.478Z,9.80
2018-11-04T18:48:45.633Z,9.80
2018-11-04T18:51:13.842Z,9.80
2018-11-04T18:53:42.019Z,9.70
2018-11-04T18:56:10.183Z,9.70
2018-11-04T18:58:38.333Z,9.70
2018-11-04T19:01:06.458Z,9.70
2018-11-04T19:03:34.713Z,9.70
2018-11-04T19:06:02.897Z,9.70
2018-11-04T19:08:31.069Z,9.80
2018-11-04T19:10:59.218Z,9.80
2018-11-04T19:13:27.383Z,9.70
2018-11-04T19:15:55.554Z,9.70
2018-11-04T19:18:23.713Z,9.70
2018-11-04T19:20:51.866Z,9.70
2018-11-04T19:23:20.003Z,9.70
2018-11-04T19:25:48.171Z,9.70
2018-11-04T19:28:16.354Z,9.60
2018-11-04T19:30:44.535Z,9.70
2018-11-04T19:33:12.674Z,9.60
2018-11-04T19:35:40.834Z,9.60
2018-11-04T19:38:09.007Z,9.60
2018-11-04T19:40:37.179Z,9.60
2018-11-04T19:43:05.400Z,9.50
2018-11-04T19:45:33.550Z,9.50
2018-11-04T19:48:01.738Z,9.50
2018-11-04T19:50:29.896Z,9.40
2018-11-04T19:52:58.173Z,9.40
2018-11-04T19:55:26.331Z,9.30
2018-11-04T19:57:54.475Z,9.30
2018-11-04T20:00:22.642Z,9.20
2018-11-04T20:02:50.802Z,9.20
2018-11-04T20:05:19.025Z,9.10
2018-11-04T20:07:47.135Z,9.10
2018-11-04T20:10:16.614Z,9.10
2018-11-04T20:12:50.342Z,9.10
2018-11-04T20:15:18.519Z,9.10
2018-11-04T20:17:47.583Z,9.00
2018-11-04T20:20:20.785Z,8.90
2018-11-04T20:22:48.843Z,8.90
2018-11-04T20:25:22.411Z,8.90
2018-11-04T20:27:50.546Z,8.90
2018-11-04T20:30:18.795Z,8.80
2018-11-04T20:32:52.345Z,8.90
2018-11-04T20:35:20.516Z,8.80
2018-11-04T20:37:48.799Z,8.80
2018-11-04T20:40:22.425Z,8.80
2018-11-04T20:42:50.587Z,8.70
2018-11-04T20:45:18.802Z,8.60
2018-11-04T20:47:52.362Z,8.50
2018-11-04T20:50:26.063Z,8.60
2018-11-04T20:52:54.240Z,8.60
2018-11-04T20:55:22.419Z,8.50
2018-11-04T20:57:57.992Z,8.50
2018-11-04T21:00:26.346Z,8.50
2018-11-04T21:02:54.549Z,8.40
2018-11-04T21:05:22.710Z,8.40
2018-11-04T21:07:51.010Z,8.40
2018-11-04T21:10:19.183Z,8.30
2018-11-04T21:12:47.355Z,8.30
2018-11-04T21:15:15.506Z,8.30
2018-11-04T21:17:43.679Z,8.20
2018-11-04T21:20:11.905Z,8.20
2018-11-04T21:22:40.047Z,8.20
2018-11-04T21:25:08.305Z,8.20
2018-11-04T21:27:36.455Z,8.20
2018-11-04T21:30:07.063Z,8.10
2018-11-04T21:32:35.342Z,8.10
2018-11-04T21:35:03.615Z,8.10
2018-11-04T21:37:31.807Z,8.10
2018-11-04T21:39:59.947Z,8.10
2018-11-04T21:42:28.316Z,8.10
2018-11-04T21:44:56.310Z,8.10
2018-11-04T21:47:24.487Z,8.00
2018-11-04T21:49:52.691Z,8.00
2018-11-04T21:52:20.821Z,8.00
2018-11-04T21:54:48.970Z,8.00
2018-11-04T21:57:17.114Z,8.00
2018-11-04T21:59:45.295Z,7.90
2018-11-04T22:02:13.519Z,7.80
2018-11-04T22:04:41.809Z,7.80
2018-11-04T22:07:09.887Z,7.80
2018-11-04T22:09:38.038Z,7.60
2018-11-04T22:12:06.179Z,7.70
2018-11-04T22:14:34.341Z,7.70
2018-11-04T22:17:02.466Z,7.70
2018-11-04T22:19:30.622Z,7.60
2018-11-04T22:21:58.771Z,7.60
2018-11-04T22:24:26.947Z,7.60
2018-11-04T22:26:55.103Z,7.60
2018-11-04T22:29:23.245Z,7.50
2018-11-04T22:31:51.390Z,7.40
2018-11-04T22:34:19.531Z,7.40
2018-11-04T22:36:47.678Z,7.40
2018-11-04T22:39:15.820Z,7.40
2018-11-04T22:41:43.984Z,7.40
2018-11-04T22:44:12.126Z,7.40
2018-11-04T22:46:40.642Z,7.30
2018-11-04T22:49:08.763Z,7.30
2018-11-04T22:51:36.903Z,7.30
2018-11-04T22:54:05.346Z,7.30
2018-11-04T22:56:33.570Z,7.20
2018-11-04T22:59:01.595Z,7.10
2018-11-04T23:01:29.799Z,7.10
2018-11-04T23:03:57.849Z,7.10
2018-11-04T23:06:26.791Z,7.10
2018-11-04T23:08:54.935Z,7.10
2018-11-04T23:11:23.098Z,7.10
2018-11-04T23:13:51.220Z,7.10
2018-11-04T23:16:19.367Z,7.00
2018-11-04T23:18:47.545Z,7.00
2018-11-04T23:21:15.606Z,7.00
2018-11-04T23:23:43.764Z,7.10
2018-11-04T23:26:11.887Z,7.10
2018-11-04T23:28:40.250Z,7.10
2018-11-04T23:31:08.402Z,7.00
2018-11-04T23:33:36.534Z,7.00
2018-11-04T23:36:04.741Z,7.00
2018-11-04T23:38:32.879Z,7.00
2018-11-04T23:41:00.990Z,7.00
2018-11-04T23:43:29.123Z,7.00
2018-11-04T23:45:57.246Z,7.00
2018-11-04T23:48:25.369Z,6.90
2018-11-04T23:50:53.507Z,6.90
2018-11-04T23:53:21.626Z,6.90
2018-11-04T23:55:49.742Z,6.90
2018-11-04T23:58:17.886Z,6.90
